Time;durP1;ratioP1;P1;durP2;ratioP2;P2;SDS_P1;SDS_P2;PMS_P1;PMS_P2;Temp;Humidity;BMP_temperature;BMP_pressure;BME280_temperature;BME280_humidity;BME280_pressure;Samples;Min_cycle;Max_cycle;Signal;HPM_P1;HPM_P2
2021/04/08 00:00:25;;;;;;;0.10;0.10;;;;;;;;;;5035163;28;20208;-69
2021/04/08 00:02:52;;;;;;;0.10;0.10;;;;;;;;;;5071090;28;20161;-69
2021/04/08 00:05:18;;;;;;;0.10;0.10;;;;;;;;;;5071002;28;20227;-68
2021/04/08 00:07:44;;;;;;;0.00;0.00;;;;;;;;;;5053057;28;20177;-69
2021/04/08 00:10:12;;;;;;;0.10;0.10;;;;;;;;;;5070934;28;20224;-68
2021/04/08 00:12:39;;;;;;;0.10;0.10;;;;;;;;;;5053106;28;20259;-68
2021/04/08 00:15:06;;;;;;;0.10;0.10;;;;;;;;;;5052999;28;20184;-69
2021/04/08 00:17:33;;;;;;;0.10;0.10;;;;;;;;;;5058781;28;20185;-69
2021/04/08 00:19:59;;;;;;;0.10;0.10;;;;;;;;;;5050715;28;20197;-69
2021/04/08 00:22:25;;;;;;;0.10;0.10;;;;;;;;;;5050831;28;20153;-68
2021/04/08 00:24:52;;;;;;;0.10;0.10;;;;;;;;;;5050637;28;20185;-68
2021/04/08 00:27:18;;;;;;;0.10;0.10;;;;;;;;;;5050550;28;20165;-68
2021/04/08 00:29:44;;;;;;;0.10;0.10;;;;;;;;;;5032724;28;20201;-69
2021/04/08 00:32:10;;;;;;;0.10;0.10;;;;;;;;;;5032796;28;20184;-69
2021/04/08 00:34:36;;;;;;;0.10;0.10;;;;;;;;;;5060324;28;20188;-68
2021/04/08 00:37:03;;;;;;;0.10;0.10;;;;;;;;;;5070420;28;20168;-69
2021/04/08 00:39:29;;;;;;;0.22;0.22;;;;;;;;;;5070296;28;20211;-69
2021/04/08 00:41:55;;;;;;;0.10;0.10;;;;;;;;;;5070419;28;20172;-69
2021/04/08 00:44:21;;;;;;;0.10;0.10;;;;;;;;;;5070261;28;20191;-69
2021/04/08 00:46:47;;;;;;;0.10;0.10;;;;;;;;;;5051059;28;20180;-68
2021/04/08 00:49:13;;;;;;;0.10;0.10;;;;;;;;;;5050241;28;20194;-69
2021/04/08 00:51:40;;;;;;;0.68;0.68;;;;;;;;;;5049858;28;20229;-68
2021/04/08 00:54:06;;;;;;;0.10;0.10;;;;;;;;;;5032254;28;20244;-69
2021/04/08 00:56:32;;;;;;;0.10;0.10;;;;;;;;;;5050194;28;20248;-68
2021/04/08 00:58:59;;;;;;;0.10;0.10;;;;;;;;;;5050141;28;20161;-68
2021/04/08 01:01:25;;;;;;;0.10;0.10;;;;;;;;;;5049951;28;20204;-68
2021/04/08 01:03:52;;;;;;;0.10;0.10;;;;;;;;;;5032178;28;20199;-69
2021/04/08 01:06:18;;;;;;;0.10;0.10;;;;;;;;;;5032234;28;20169;-68
2021/04/08 01:08:44;;;;;;;0.77;0.70;;;;;;;;;;5032246;28;20244;-68
2021/04/08 01:11:10;;;;;;;0.10;0.10;;;;;;;;;;5049887;28;20193;-68
2021/04/08 01:13:37;;;;;;;0.10;0.10;;;;;;;;;;5049712;28;20189;-68
2021/04/08 01:16:09;;;;;;;0.13;0.13;;;;;;;;;;5049782;28;20166;-68
2021/04/08 01:18:39;;;;;;;0.10;0.10;;;;;;;;;;5032060;28;20236;-69
2021/04/08 01:21:05;;;;;;;0.10;0.10;;;;;;;;;;5031910;28;20193;-69
2021/04/08 01:23:50;;;;;;;0.10;0.10;;;;;;;;;;5031980;28;20598;-69
2021/04/08 01:26:19;;;;;;;0.10;0.10;;;;;;;;;;5049690;28;20228;-68
2021/04/08 01:29:02;;;;;;;0.10;0.10;;;;;;;;;;5031878;28;20176;-68
2021/04/08 01:31:28;;;;;;;0.20;0.20;;;;;;;;;;5049437;28;20227;-68
2021/04/08 01:34:01;;;;;;;0.10;0.10;;;;;;;;;;5049467;28;20165;-68
2021/04/08 01:36:30;;;;;;;0.50;0.50;;;;;;;;;;5049422;28;20173;-68
2021/04/08 01:38:59;;;;;;;0.10;0.10;;;;;;;;;;5031737;28;20721;-68
2021/04/08 01:41:26;;;;;;;0.00;0.00;;;;;;;;;;5049349;28;20197;-68
2021/04/08 01:43:55;;;;;;;0.10;0.10;;;;;;;;;;5048948;28;20164;-68
2021/04/08 01:46:21;;;;;;;0.25;0.25;;;;;;;;;;5049256;28;20164;-68
2021/04/08 01:48:49;;;;;;;0.10;0.10;;;;;;;;;;5049391;28;20164;-69
2021/04/08 01:51:16;;;;;;;0.20;0.20;;;;;;;;;;5075303;28;20235;-69
2021/04/08 01:53:55;;;;;;;0.13;0.13;;;;;;;;;;5089342;28;20161;-68
2021/04/08 01:56:24;;;;;;;0.77;0.77;;;;;;;;;;5089039;28;20172;-68
2021/04/08 01:58:50;;;;;;;1.58;1.48;;;;;;;;;;5088875;28;20164;-68
2021/04/08 02:01:17;;;;;;;0.10;0.10;;;;;;;;;;5069739;28;20191;-68
2021/04/08 02:03:44;;;;;;;0.10;0.10;;;;;;;;;;5071204;28;20172;-68
2021/04/08 02:06:11;;;;;;;0.10;0.10;;;;;;;;;;5089202;28;20643;-68
2021/04/08 02:08:38;;;;;;;0.20;0.20;;;;;;;;;;5071187;28;20203;-68
2021/04/08 02:11:05;;;;;;;0.10;0.10;;;;;;;;;;5089042;28;20245;-69
2021/04/08 02:13:31;;;;;;;0.10;0.10;;;;;;;;;;5071004;28;20210;-69
2021/04/08 02:15:58;;;;;;;0.15;0.15;;;;;;;;;;5089038;28;20164;-69
2021/04/08 02:18:25;;;;;;;0.10;0.10;;;;;;;;;;5089143;28;20164;-68
2021/04/08 02:20:53;;;;;;;0.20;0.20;;;;;;;;;;5088904;28;20200;-69
2021/04/08 02:23:24;;;;;;;0.10;0.10;;;;;;;;;;5088953;28;20172;-68
2021/04/08 02:25:52;;;;;;;0.20;0.20;;;;;;;;;;5088946;28;20195;-68
2021/04/08 02:28:19;;;;;;;0.10;0.10;;;;;;;;;;5088887;28;20225;-68
2021/04/08 02:30:46;;;;;;;0.20;0.20;;;;;;;;;;5088940;28;20192;-68
2021/04/08 02:33:21;;;;;;;0.10;0.10;;;;;;;;;;5070475;28;20164;-68
2021/04/08 02:35:48;;;;;;;0.10;0.10;;;;;;;;;;5070916;28;20179;-68
2021/04/08 02:38:15;;;;;;;0.10;0.10;;;;;;;;;;5088865;28;20164;-68
2021/04/08 02:40:41;;;;;;;0.10;0.10;;;;;;;;;;5088720;28;20192;-68
2021/04/08 02:43:09;;;;;;;0.10;0.10;;;;;;;;;;5088783;28;20168;-68
2021/04/08 02:45:35;;;;;;;0.10;0.10;;;;;;;;;;5088380;28;20560;-68
2021/04/08 02:48:01;;;;;;;0.17;0.17;;;;;;;;;;5070451;28;20190;-68
2021/04/08 02:50:28;;;;;;;0.10;0.10;;;;;;;;;;5088301;28;20223;-68
2021/04/08 02:53:03;;;;;;;0.10;0.10;;;;;;;;;;5088407;28;20176;-68
2021/04/08 02:55:34;;;;;;;0.32;0.32;;;;;;;;;;5070112;28;20187;-68
2021/04/08 02:58:03;;;;;;;0.10;0.10;;;;;;;;;;5091839;28;20163;-68
2021/04/08 03:00:43;;;;;;;0.30;0.30;;;;;;;;;;5091888;28;20217;-68
2021/04/08 03:03:11;;;;;;;0.10;0.10;;;;;;;;;;5074160;28;20198;-68
2021/04/08 03:05:40;;;;;;;0.10;0.10;;;;;;;;;;5092127;28;20195;-68
2021/04/08 03:08:08;;;;;;;0.10;0.10;;;;;;;;;;5074215;28;20168;-68
2021/04/08 03:10:36;;;;;;;0.25;0.25;;;;;;;;;;5092046;28;20243;-68
2021/04/08 03:13:02;;;;;;;0.40;0.40;;;;;;;;;;5092118;28;20171;-68
2021/04/08 03:15:31;;;;;;;0.10;0.10;;;;;;;;;;5091931;28;20223;-68
2021/04/08 03:17:59;;;;;;;0.10;0.10;;;;;;;;;;5091802;28;20168;-69
2021/04/08 03:20:26;;;;;;;0.10;0.10;;;;;;;;;;5091742;28;20253;-68
2021/04/08 03:22:53;;;;;;;0.10;0.10;;;;;;;;;;5073948;28;20202;-68
2021/04/08 03:25:20;;;;;;;0.10;0.10;;;;;;;;;;5091820;28;20273;-68
2021/04/08 03:27:48;;;;;;;0.10;0.10;;;;;;;;;;5091748;28;20216;-68
2021/04/08 03:30:15;;;;;;;0.10;0.10;;;;;;;;;;5091920;28;20192;-68
2021/04/08 03:32:43;;;;;;;0.10;0.10;;;;;;;;;;5091467;28;20160;-68
2021/04/08 03:35:10;;;;;;;0.10;0.10;;;;;;;;;;5091523;28;20160;-68
2021/04/08 03:37:36;;;;;;;0.10;0.10;;;;;;;;;;5091539;28;20167;-68
2021/04/08 03:40:03;;;;;;;0.10;0.10;;;;;;;;;;5091429;28;20192;-68
2021/04/08 03:42:30;;;;;;;0.20;0.20;;;;;;;;;;5091384;28;20167;-68
2021/04/08 03:44:56;;;;;;;0.15;0.15;;;;;;;;;;5073198;28;20199;-68
2021/04/08 03:47:26;;;;;;;1.08;1.02;;;;;;;;;;5072966;28;20755;-69
2021/04/08 03:49:53;;;;;;;0.32;0.32;;;;;;;;;;5090905;28;20160;-68
2021/04/08 03:52:20;;;;;;;0.10;0.10;;;;;;;;;;5090658;28;20182;-68
2021/04/08 03:54:48;;;;;;;0.50;0.50;;;;;;;;;;5090427;28;20160;-68
2021/04/08 03:57:17;;;;;;;0.10;0.10;;;;;;;;;;5091157;28;20176;-68
2021/04/08 03:59:46;;;;;;;2.20;0.68;;;;;;;;;;5072781;28;20168;-68
2021/04/08 04:02:13;;;;;;;0.75;0.75;;;;;;;;;;5090805;28;20210;-68
2021/04/08 04:04:41;;;;;;;0.10;0.10;;;;;;;;;;5090798;28;20194;-68
2021/04/08 04:07:07;;;;;;;0.17;0.17;;;;;;;;;;5072649;28;20175;-68
2021/04/08 04:09:34;;;;;;;0.10;0.10;;;;;;;;;;5090756;28;20240;-68
2021/04/08 04:12:00;;;;;;;0.20;0.20;;;;;;;;;;5072726;28;20196;-68
2021/04/08 04:14:28;;;;;;;0.10;0.10;;;;;;;;;;5072463;28;20198;-68
2021/04/08 04:16:55;;;;;;;0.10;0.10;;;;;;;;;;5090418;28;20164;-68
2021/04/08 04:19:22;;;;;;;0.10;0.10;;;;;;;;;;5072634;28;20168;-68
2021/04/08 04:21:48;;;;;;;0.25;0.25;;;;;;;;;;5090233;28;20187;-68
2021/04/08 04:24:15;;;;;;;0.10;0.10;;;;;;;;;;5072339;28;20206;-67
2021/04/08 04:26:41;;;;;;;0.13;0.13;;;;;;;;;;5072591;28;20160;-69
2021/04/08 04:29:07;;;;;;;0.47;0.47;;;;;;;;;;5072359;28;20171;-67
2021/04/08 04:31:34;;;;;;;0.10;0.10;;;;;;;;;;5090207;28;20184;-68
2021/04/08 04:34:03;;;;;;;0.20;0.20;;;;;;;;;;5072220;28;20490;-68
2021/04/08 04:36:29;;;;;;;0.10;0.10;;;;;;;;;;5090259;28;20160;-68
2021/04/08 04:38:56;;;;;;;0.20;0.20;;;;;;;;;;5072296;28;20168;-68
2021/04/08 04:41:22;;;;;;;0.10;0.10;;;;;;;;;;5090048;28;20188;-68
2021/04/08 04:43:48;;;;;;;0.28;0.28;;;;;;;;;;5072071;28;20165;-68
2021/04/08 04:46:15;;;;;;;0.45;0.45;;;;;;;;;;5089902;28;20164;-69
2021/04/08 04:48:41;;;;;;;1.40;1.02;;;;;;;;;;5071991;28;20175;-68
2021/04/08 04:51:07;;;;;;;0.30;0.30;;;;;;;;;;5071803;28;20240;-67
2021/04/08 04:53:34;;;;;;;0.40;0.40;;;;;;;;;;5071750;28;20191;-68
2021/04/08 04:56:00;;;;;;;0.10;0.10;;;;;;;;;;5089858;28;20216;-68
2021/04/08 04:58:26;;;;;;;0.10;0.10;;;;;;;;;;5071918;28;20703;-68
2021/04/08 05:00:52;;;;;;;0.20;0.20;;;;;;;;;;5071539;28;20204;-68
2021/04/08 05:03:19;;;;;;;0.10;0.10;;;;;;;;;;5089459;28;20243;-68
2021/04/08 05:05:45;;;;;;;0.10;0.10;;;;;;;;;;5089119;28;20218;-68
2021/04/08 05:08:12;;;;;;;0.10;0.10;;;;;;;;;;5089614;28;20161;-68
2021/04/08 05:10:38;;;;;;;0.35;0.35;;;;;;;;;;5071392;28;20244;-68
2021/04/08 05:13:05;;;;;;;0.77;0.77;;;;;;;;;;5089117;28;20164;-68
2021/04/08 05:15:31;;;;;;;0.10;0.10;;;;;;;;;;5071175;28;20171;-68
2021/04/08 05:17:57;;;;;;;0.10;0.10;;;;;;;;;;5088947;28;20174;-68
2021/04/08 05:20:23;;;;;;;0.85;0.85;;;;;;;;;;5088613;28;20227;-68
2021/04/08 05:22:49;;;;;;;0.10;0.10;;;;;;;;;;5089241;28;20156;-68
2021/04/08 05:25:16;;;;;;;1.17;1.08;;;;;;;;;;5088939;28;20195;-69
2021/04/08 05:27:42;;;;;;;0.10;0.10;;;;;;;;;;5089248;28;20160;-68
2021/04/08 05:30:09;;;;;;;0.30;0.30;;;;;;;;;;5089334;28;20192;-68
2021/04/08 05:32:35;;;;;;;0.20;0.20;;;;;;;;;;5088711;28;20164;-68
2021/04/08 05:35:01;;;;;;;0.10;0.10;;;;;;;;;;5089157;28;20499;-69
2021/04/08 05:37:27;;;;;;;0.10;0.10;;;;;;;;;;5088852;28;20194;-69
2021/04/08 05:39:54;;;;;;;0.10;0.10;;;;;;;;;;5089094;28;20592;-69
2021/04/08 05:42:20;;;;;;;0.15;0.15;;;;;;;;;;5088839;28;20156;-69
2021/04/08 05:44:46;;;;;;;0.10;0.10;;;;;;;;;;5088757;28;20211;-69
2021/04/08 05:47:12;;;;;;;0.38;0.38;;;;;;;;;;5050138;28;20175;-68
2021/04/08 05:49:38;;;;;;;0.25;0.25;;;;;;;;;;5050481;28;20250;-69
2021/04/08 05:52:05;;;;;;;0.10;0.10;;;;;;;;;;5068759;28;20192;-69
2021/04/08 05:54:33;;;;;;;0.10;0.10;;;;;;;;;;5068630;28;20184;-69
2021/04/08 05:56:59;;;;;;;0.00;0.00;;;;;;;;;;5067745;28;20164;-68
2021/04/08 05:59:26;;;;;;;1.02;1.00;;;;;;;;;;5049369;28;21523;-69
2021/04/08 06:01:52;;;;;;;0.10;0.10;;;;;;;;;;5064881;28;20193;-69
2021/04/08 06:04:18;;;;;;;0.50;0.50;;;;;;;;;;5055446;28;20192;-69
2021/04/08 06:06:44;;;;;;;0.75;0.75;;;;;;;;;;5039875;28;20233;-68
2021/04/08 06:09:10;;;;;;;1.33;1.02;;;;;;;;;;5062978;28;20172;-69
2021/04/08 06:11:36;;;;;;;2.05;0.90;;;;;;;;;;5033938;28;20197;-69
2021/04/08 06:14:03;;;;;;;0.10;0.10;;;;;;;;;;5044574;28;20236;-69
2021/04/08 06:16:29;;;;;;;5.60;1.75;;;;;;;;;;5028682;28;20181;-69
2021/04/08 06:18:55;;;;;;;0.90;0.85;;;;;;;;;;5028866;28;20170;-69
2021/04/08 06:21:22;;;;;;;0.45;0.38;;;;;;;;;;5011094;28;20206;-69
2021/04/08 06:23:48;;;;;;;0.20;0.20;;;;;;;;;;5031056;28;20173;-69
2021/04/08 06:26:14;;;;;;;0.63;0.63;;;;;;;;;;5041738;28;20170;-69
2021/04/08 06:28:40;;;;;;;0.55;0.55;;;;;;;;;;5031012;28;20166;-69
2021/04/08 06:31:07;;;;;;;0.45;0.45;;;;;;;;;;5050568;28;20189;-69
2021/04/08 06:33:33;;;;;;;3.92;2.28;;;;;;;;;;5033395;28;20711;-69
2021/04/08 06:35:59;;;;;;;1.55;1.50;;;;;;;;;;5051971;28;20201;-69
2021/04/08 06:38:26;;;;;;;0.47;0.47;;;;;;;;;;5052381;28;20234;-68
2021/04/08 06:40:53;;;;;;;2.72;1.38;;;;;;;;;;5034126;28;20201;-68
2021/04/08 06:43:19;;;;;;;0.10;0.10;;;;;;;;;;5034387;28;20175;-69
2021/04/08 06:45:48;;;;;;;0.05;0.05;;;;;;;;;;5052153;28;20537;-68
2021/04/08 06:48:20;;;;;;;0.22;0.22;;;;;;;;;;5033848;28;20165;-69
2021/04/08 06:50:48;;;;;;;0.20;0.20;;;;;;;;;;5061486;28;20220;-69
2021/04/08 06:53:14;;;;;;;0.10;0.10;;;;;;;;;;5072031;28;20161;-68
2021/04/08 06:55:42;;;;;;;0.15;0.15;;;;;;;;;;5071847;28;20157;-69
2021/04/08 06:58:09;;;;;;;0.85;0.85;;;;;;;;;;5053987;28;20172;-69
2021/04/08 07:00:35;;;;;;;0.10;0.10;;;;;;;;;;5071894;28;20197;-69
2021/04/08 07:03:05;;;;;;;0.10;0.10;;;;;;;;;;5071878;28;20168;-68
2021/04/08 07:05:32;;;;;;;0.43;0.43;;;;;;;;;;5053806;28;20203;-69
2021/04/08 07:07:58;;;;;;;0.57;0.57;;;;;;;;;;5071591;28;20176;-69
2021/04/08 07:10:24;;;;;;;0.38;0.38;;;;;;;;;;5053295;28;20193;-69
2021/04/08 07:12:54;;;;;;;0.50;0.50;;;;;;;;;;5053764;28;20169;-69
2021/04/08 07:15:21;;;;;;;0.10;0.10;;;;;;;;;;5071625;28;20188;-69
2021/04/08 07:17:48;;;;;;;0.50;0.50;;;;;;;;;;5071581;28;20256;-68
2021/04/08 07:20:14;;;;;;;1.13;1.02;;;;;;;;;;5071298;28;20196;-68
2021/04/08 07:22:40;;;;;;;0.10;0.10;;;;;;;;;;5071416;28;20199;-69
2021/04/08 07:25:14;;;;;;;2.38;0.73;;;;;;;;;;5071356;28;20208;-68
2021/04/08 07:27:40;;;;;;;0.85;0.85;;;;;;;;;;5071424;28;20149;-68
2021/04/08 07:30:06;;;;;;;0.75;0.75;;;;;;;;;;5071396;28;20256;-69
2021/04/08 07:32:34;;;;;;;0.40;0.40;;;;;;;;;;5071246;28;20188;-68
2021/04/08 07:35:02;;;;;;;0.38;0.30;;;;;;;;;;5071366;28;20165;-68
2021/04/08 07:37:29;;;;;;;0.55;0.52;;;;;;;;;;5053127;28;20696;-69
2021/04/08 07:39:57;;;;;;;4.00;1.88;;;;;;;;;;5070959;28;20168;-68
2021/04/08 07:42:27;;;;;;;0.65;0.57;;;;;;;;;;5070422;28;20160;-69
2021/04/08 07:44:55;;;;;;;0.38;0.38;;;;;;;;;;5064707;28;20291;-68
2021/04/08 07:47:26;;;;;;;0.52;0.52;;;;;;;;;;5069473;28;20176;-69
2021/04/08 07:49:56;;;;;;;0.10;0.10;;;;;;;;;;5050012;28;20188;-68
2021/04/08 07:52:22;;;;;;;0.45;0.45;;;;;;;;;;5057536;28;20173;-68
2021/04/08 07:55:09;;;;;;;2.55;2.13;;;;;;;;;;5031744;28;20646;-69
2021/04/08 07:57:53;;;;;;;0.30;0.30;;;;;;;;;;5050147;28;20192;-68
2021/04/08 08:00:32;;;;;;;0.30;0.30;;;;;;;;;;5032410;28;20184;-68
2021/04/08 08:03:00;;;;;;;3.83;1.13;;;;;;;;;;5042712;28;20164;-67
2021/04/08 08:05:30;;;;;;;2.05;1.95;;;;;;;;;;5068810;28;20703;-68
2021/04/08 08:08:10;;;;;;;0.20;0.20;;;;;;;;;;5069368;28;20207;-68
2021/04/08 08:10:39;;;;;;;0.13;0.13;;;;;;;;;;5068121;28;20632;-68
2021/04/08 08:13:07;;;;;;;0.10;0.10;;;;;;;;;;5069361;28;20261;-68
2021/04/08 08:15:33;;;;;;;2.55;1.50;;;;;;;;;;5068738;28;20656;-68
2021/04/08 08:17:59;;;;;;;0.10;0.10;;;;;;;;;;5051661;28;20223;-69
2021/04/08 08:20:26;;;;;;;0.10;0.10;;;;;;;;;;5052029;28;20169;-68
2021/04/08 08:22:53;;;;;;;0.10;0.10;;;;;;;;;;5051784;28;20168;-68
2021/04/08 08:25:25;;;;;;;0.15;0.15;;;;;;;;;;5068799;28;20207;-68
2021/04/08 08:27:53;;;;;;;0.88;0.82;;;;;;;;;;5051576;28;20200;-68
2021/04/08 08:30:51;;;;;;;4.82;1.77;;;;;;;;;;5069637;28;20161;-69
2021/04/08 08:33:18;;;;;;;0.10;0.10;;;;;;;;;;5069183;28;20172;-68
2021/04/08 08:35:45;;;;;;;0.03;0.03;;;;;;;;;;5068996;28;20161;-68
2021/04/08 08:38:19;;;;;;;0.20;0.20;;;;;;;;;;5050010;28;20195;-69
2021/04/08 08:40:46;;;;;;;0.30;0.30;;;;;;;;;;5069551;28;20157;-69
2021/04/08 08:43:12;;;;;;;0.17;0.17;;;;;;;;;;5060308;28;20267;-68
2021/04/08 08:45:39;;;;;;;1.67;1.58;;;;;;;;;;5069283;28;20227;-69
2021/04/08 08:48:10;;;;;;;0.10;0.10;;;;;;;;;;5057851;28;20185;-67
2021/04/08 08:50:37;;;;;;;0.43;0.43;;;;;;;;;;5031995;28;20210;-69
2021/04/08 08:53:04;;;;;;;1.02;0.68;;;;;;;;;;5029170;28;20598;-70
2021/04/08 08:55:31;;;;;;;0.40;0.40;;;;;;;;;;5030503;28;20224;-68
2021/04/08 08:57:58;;;;;;;0.52;0.52;;;;;;;;;;5048047;28;20643;-69
2021/04/08 09:00:27;;;;;;;0.10;0.10;;;;;;;;;;5069142;28;20167;-69
2021/04/08 09:02:56;;;;;;;0.55;0.55;;;;;;;;;;5050791;28;20203;-69
2021/04/08 09:05:23;;;;;;;0.88;0.82;;;;;;;;;;5051049;28;20199;-68
2021/04/08 09:07:51;;;;;;;0.60;0.60;;;;;;;;;;5068735;28;20175;-69
2021/04/08 09:10:27;;;;;;;0.63;0.63;;;;;;;;;;5067872;28;20168;-68
2021/04/08 09:12:53;;;;;;;0.17;0.17;;;;;;;;;;5068668;28;20266;-68
2021/04/08 09:15:19;;;;;;;0.25;0.22;;;;;;;;;;5068741;28;20187;-68
2021/04/08 09:17:46;;;;;;;0.08;0.08;;;;;;;;;;5050804;28;20164;-69
2021/04/08 09:20:12;;;;;;;0.30;0.30;;;;;;;;;;5067945;28;20694;-68
2021/04/08 09:23:06;;;;;;;0.20;0.20;;;;;;;;;;5049922;28;20239;-68
2021/04/08 09:25:33;;;;;;;0.00;0.00;;;;;;;;;;5061331;28;20227;-68
2021/04/08 09:28:10;;;;;;;0.40;0.40;;;;;;;;;;5050366;28;20404;-69
2021/04/08 09:33:13;;;;;;;0.13;0.13;;;;;;;;;;5068500;28;20669;-68
2021/04/08 09:35:40;;;;;;;0.10;0.10;;;;;;;;;;5068264;28;20573;-68
2021/04/08 09:38:13;;;;;;;0.25;0.25;;;;;;;;;;5067352;28;20164;-68
2021/04/08 09:40:44;;;;;;;0.10;0.10;;;;;;;;;;5030055;28;20195;-68
2021/04/08 09:43:18;;;;;;;0.10;0.10;;;;;;;;;;5047697;28;20189;-67
2021/04/08 09:45:58;;;;;;;0.10;0.10;;;;;;;;;;5048418;28;20205;-68
2021/04/08 09:48:26;;;;;;;0.70;0.65;;;;;;;;;;5048364;28;20227;-68
2021/04/08 09:51:02;;;;;;;0.08;0.08;;;;;;;;;;5050905;28;20225;-68
2021/04/08 09:53:48;;;;;;;0.10;0.10;;;;;;;;;;5049005;28;20183;-69
2021/04/08 09:56:15;;;;;;;0.00;0.00;;;;;;;;;;5030962;28;20251;-69
2021/04/08 09:58:41;;;;;;;0.20;0.20;;;;;;;;;;5034288;28;20161;-68
2021/04/08 10:01:08;;;;;;;0.00;0.00;;;;;;;;;;5049999;28;20196;-74
2021/04/08 10:03:36;;;;;;;0.00;0.00;;;;;;;;;;5066907;28;20171;-74
2021/04/08 10:06:22;;;;;;;0.03;0.03;;;;;;;;;;5052079;28;20277;-74
2021/04/08 10:08:49;;;;;;;0.10;0.10;;;;;;;;;;5037449;28;20171;-74
2021/04/08 10:11:26;;;;;;;0.10;0.10;;;;;;;;;;5034594;28;20201;-75
2021/04/08 10:13:52;;;;;;;0.00;0.00;;;;;;;;;;5051192;28;20165;-74
2021/04/08 10:16:18;;;;;;;0.00;0.00;;;;;;;;;;5034259;28;20546;-74
2021/04/08 10:18:45;;;;;;;0.05;0.05;;;;;;;;;;5052486;28;20162;-74
2021/04/08 10:21:17;;;;;;;0.47;0.47;;;;;;;;;;5051797;28;20197;-75
2021/04/08 10:23:50;;;;;;;1.05;1.05;;;;;;;;;;5051849;28;20217;-75
2021/04/08 10:26:20;;;;;;;0.82;0.80;;;;;;;;;;5051412;28;20189;-74
2021/04/08 10:28:51;;;;;;;0.13;0.13;;;;;;;;;;5034372;28;20170;-76
2021/04/08 10:31:19;;;;;;;0.00;0.00;;;;;;;;;;5051735;28;20197;-76
2021/04/08 10:33:50;;;;;;;0.10;0.10;;;;;;;;;;5052092;28;20217;-75
2021/04/08 10:36:45;;;;;;;0.10;0.10;;;;;;;;;;5051051;28;20172;-75
2021/04/08 10:39:17;;;;;;;0.00;0.00;;;;;;;;;;4951879;29;20268;-76
2021/04/08 10:42:05;;;;;;;0.30;0.30;;;;;;;;;;4951896;29;20197;-76
2021/04/08 10:44:40;;;;;;;0.35;0.35;;;;;;;;;;4952161;29;20215;-75
2021/04/08 10:47:09;;;;;;;0.10;0.10;;;;;;;;;;4950976;29;20212;-76
2021/04/08 10:49:36;;;;;;;0.10;0.10;;;;;;;;;;4951621;29;20195;-76
2021/04/08 10:52:05;;;;;;;0.55;0.28;;;;;;;;;;4982338;28;20829;-76
2021/04/08 10:54:32;;;;;;;0.20;0.20;;;;;;;;;;4973984;28;20184;-76
2021/04/08 10:56:59;;;;;;;0.00;0.00;;;;;;;;;;4973245;28;20265;-75
2021/04/08 10:59:27;;;;;;;0.05;0.05;;;;;;;;;;4978349;28;20180;-75
2021/04/08 11:01:53;;;;;;;0.00;0.00;;;;;;;;;;4970832;29;20207;-76
2021/04/08 11:04:21;;;;;;;0.00;0.00;;;;;;;;;;4970667;29;20208;-75
2021/04/08 11:06:47;;;;;;;0.00;0.00;;;;;;;;;;4970904;29;20285;-75
2021/04/08 11:09:21;;;;;;;0.25;0.25;;;;;;;;;;4969179;29;20208;-75
2021/04/08 11:11:48;;;;;;;0.00;0.00;;;;;;;;;;4970838;29;20200;-73
2021/04/08 11:14:24;;;;;;;0.03;0.03;;;;;;;;;;4970641;29;20176;-75
2021/04/08 11:16:52;;;;;;;0.10;0.10;;;;;;;;;;5050067;28;20172;-73
2021/04/08 11:19:19;;;;;;;0.10;0.10;;;;;;;;;;5050230;28;20191;-69
2021/04/08 11:21:45;;;;;;;0.20;0.20;;;;;;;;;;5032568;28;20271;-68
2021/04/08 11:24:12;;;;;;;0.13;0.13;;;;;;;;;;5032653;28;20391;-69
2021/04/08 11:26:49;;;;;;;0.10;0.10;;;;;;;;;;5050533;28;20176;-69
2021/04/08 11:29:25;;;;;;;0.30;0.30;;;;;;;;;;5050474;28;20188;-68
2021/04/08 11:32:00;;;;;;;0.40;0.30;;;;;;;;;;5050455;28;20214;-68
2021/04/08 11:34:26;;;;;;;0.17;0.17;;;;;;;;;;5050967;28;20176;-69
2021/04/08 11:36:53;;;;;;;0.10;0.10;;;;;;;;;;5050930;28;20158;-69
2021/04/08 11:39:20;;;;;;;0.75;0.75;;;;;;;;;;5050846;28;20161;-68
2021/04/08 11:41:47;;;;;;;0.57;0.57;;;;;;;;;;5032318;28;20200;-68
2021/04/08 11:44:24;;;;;;;0.13;0.13;;;;;;;;;;5033373;28;20176;-74
2021/04/08 11:46:50;;;;;;;0.10;0.10;;;;;;;;;;5050048;28;20166;-75
2021/04/08 11:49:20;;;;;;;0.20;0.20;;;;;;;;;;5032786;28;20172;-75
2021/04/08 11:51:50;;;;;;;0.03;0.03;;;;;;;;;;5051902;28;20323;-75
2021/04/08 11:54:17;;;;;;;0.10;0.10;;;;;;;;;;5032192;28;20166;-75
2021/04/08 11:56:44;;;;;;;0.03;0.03;;;;;;;;;;5033052;28;20161;-75
2021/04/08 11:59:10;;;;;;;0.43;0.28;;;;;;;;;;5060202;28;20171;-75
2021/04/08 12:01:39;;;;;;;0.22;0.22;;;;;;;;;;5069677;28;20208;-75
2021/04/08 12:04:15;;;;;;;0.10;0.10;;;;;;;;;;5051501;28;20172;-76
2021/04/08 12:06:42;;;;;;;0.43;0.43;;;;;;;;;;5070257;28;20203;-73
2021/04/08 12:09:09;;;;;;;0.10;0.10;;;;;;;;;;5052178;28;20244;-77
2021/04/08 12:11:52;;;;;;;0.05;0.05;;;;;;;;;;5052310;28;20330;-75
2021/04/08 12:14:18;;;;;;;0.55;0.55;;;;;;;;;;5068775;28;20207;-75
2021/04/08 12:16:45;;;;;;;5.78;0.90;;;;;;;;;;5070507;28;20161;-75
2021/04/08 12:19:23;;;;;;;0.10;0.10;;;;;;;;;;5070093;28;20165;-76
2021/04/08 12:22:04;;;;;;;0.00;0.00;;;;;;;;;;5051603;28;20192;-75
2021/04/08 12:24:30;;;;;;;0.45;0.45;;;;;;;;;;5050703;28;20210;-74
2021/04/08 12:26:57;;;;;;;1.55;0.28;;;;;;;;;;5040659;28;20205;-75
2021/04/08 12:29:24;;;;;;;0.10;0.10;;;;;;;;;;5043412;28;20189;-75
2021/04/08 12:31:51;;;;;;;0.35;0.35;;;;;;;;;;5049708;28;20303;-74
2021/04/08 12:34:18;;;;;;;0.10;0.10;;;;;;;;;;5049562;28;20165;-75
2021/04/08 12:36:44;;;;;;;0.10;0.10;;;;;;;;;;5048535;28;20165;-75
2021/04/08 12:39:11;;;;;;;0.10;0.10;;;;;;;;;;5031598;28;20169;-75
2021/04/08 12:41:37;;;;;;;0.10;0.10;;;;;;;;;;5031973;28;20224;-75
2021/04/08 12:44:04;;;;;;;0.15;0.15;;;;;;;;;;5031862;28;20252;-75
2021/04/08 12:46:30;;;;;;;0.10;0.10;;;;;;;;;;5049323;28;20161;-75
2021/04/08 12:48:57;;;;;;;0.00;0.00;;;;;;;;;;5052663;28;20161;-74
2021/04/08 12:51:23;;;;;;;0.10;0.10;;;;;;;;;;5070523;28;20236;-74
2021/04/08 12:53:49;;;;;;;0.00;0.00;;;;;;;;;;5069379;28;20191;-75
2021/04/08 12:56:16;;;;;;;0.43;0.40;;;;;;;;;;5069734;28;20216;-75
2021/04/08 12:58:43;;;;;;;0.10;0.10;;;;;;;;;;5075662;28;20156;-75
2021/04/08 13:01:09;;;;;;;0.20;0.20;;;;;;;;;;5071274;28;20199;-76
2021/04/08 13:03:36;;;;;;;0.10;0.10;;;;;;;;;;5074339;28;20180;-76
2021/04/08 13:06:02;;;;;;;0.10;0.10;;;;;;;;;;5069345;28;20564;-75
2021/04/08 13:08:28;;;;;;;3.42;0.43;;;;;;;;;;5045654;28;20189;-76
2021/04/08 13:10:54;;;;;;;0.40;0.40;;;;;;;;;;5048794;28;20180;-75
2021/04/08 13:13:21;;;;;;;0.20;0.20;;;;;;;;;;5048886;28;20180;-75
2021/04/08 13:15:47;;;;;;;0.10;0.10;;;;;;;;;;5048904;28;20227;-75
2021/04/08 13:18:13;;;;;;;0.05;0.05;;;;;;;;;;5049229;28;20157;-75
2021/04/08 13:20:40;;;;;;;0.10;0.10;;;;;;;;;;5049338;28;20221;-75
2021/04/08 13:23:06;;;;;;;0.47;0.38;;;;;;;;;;5031321;28;20253;-75
2021/04/08 13:25:33;;;;;;;0.13;0.13;;;;;;;;;;5048588;28;20193;-75
2021/04/08 13:28:00;;;;;;;0.10;0.10;;;;;;;;;;5030723;28;20157;-75
2021/04/08 13:30:27;;;;;;;0.20;0.20;;;;;;;;;;5030976;28;20165;-75
2021/04/08 13:32:53;;;;;;;0.85;0.85;;;;;;;;;;5051565;28;20235;-75
2021/04/08 13:35:21;;;;;;;0.10;0.10;;;;;;;;;;5068846;28;20236;-76
2021/04/08 13:37:47;;;;;;;0.08;0.08;;;;;;;;;;5050875;28;20269;-75
2021/04/08 13:40:14;;;;;;;0.20;0.20;;;;;;;;;;5067896;28;20160;-75
2021/04/08 13:42:43;;;;;;;0.10;0.10;;;;;;;;;;5068689;28;20283;-75
2021/04/08 13:45:11;;;;;;;0.20;0.20;;;;;;;;;;5049301;28;20201;-75
2021/04/08 13:47:37;;;;;;;3.85;0.43;;;;;;;;;;5048813;28;20221;-75
2021/04/08 13:50:04;;;;;;;0.20;0.20;;;;;;;;;;5048599;28;20209;-75
2021/04/08 13:52:31;;;;;;;0.57;0.57;;;;;;;;;;5069935;28;20246;-74
2021/04/08 13:54:57;;;;;;;0.30;0.30;;;;;;;;;;5070659;28;20229;-75
2021/04/08 13:57:24;;;;;;;1.20;0.35;;;;;;;;;;5088723;28;20184;-75
2021/04/08 13:59:50;;;;;;;0.10;0.10;;;;;;;;;;5088153;28;20172;-75
2021/04/08 14:02:16;;;;;;;0.38;0.38;;;;;;;;;;5087920;28;20191;-75
2021/04/08 14:04:42;;;;;;;0.52;0.30;;;;;;;;;;5088155;28;20249;-75
2021/04/08 14:07:09;;;;;;;4.20;1.60;;;;;;;;;;5070242;28;20200;-76
2021/04/08 14:09:37;;;;;;;0.08;0.08;;;;;;;;;;5088429;28;20164;-76
2021/04/08 14:12:04;;;;;;;0.30;0.30;;;;;;;;;;5069991;28;20199;-75
2021/04/08 14:14:30;;;;;;;0.08;0.08;;;;;;;;;;5088338;28;20171;-75
2021/04/08 14:16:57;;;;;;;0.08;0.08;;;;;;;;;;5088288;28;20247;-75
2021/04/08 14:19:23;;;;;;;2.38;0.57;;;;;;;;;;5087774;28;20164;-75
2021/04/08 14:21:50;;;;;;;1.17;0.30;;;;;;;;;;5069947;28;20198;-75
2021/04/08 14:24:17;;;;;;;0.10;0.10;;;;;;;;;;5088135;28;20279;-75
2021/04/08 14:26:44;;;;;;;0.10;0.10;;;;;;;;;;5070286;28;20164;-76
2021/04/08 14:29:10;;;;;;;0.10;0.10;;;;;;;;;;5088560;28;20191;-68
2021/04/08 14:31:36;;;;;;;0.10;0.10;;;;;;;;;;5070347;28;20203;-68
2021/04/08 14:34:03;;;;;;;3.55;0.75;;;;;;;;;;5070418;28;20176;-68
2021/04/08 14:36:30;;;;;;;0.00;0.00;;;;;;;;;;5088087;28;20171;-68
2021/04/08 14:38:56;;;;;;;0.00;0.00;;;;;;;;;;5088609;28;20161;-69
2021/04/08 14:41:22;;;;;;;0.45;0.32;;;;;;;;;;5069602;28;20221;-68
2021/04/08 14:43:48;;;;;;;0.10;0.10;;;;;;;;;;5088091;28;20164;-69
2021/04/08 14:46:15;;;;;;;0.20;0.20;;;;;;;;;;5087835;28;20341;-69
2021/04/08 14:48:41;;;;;;;0.28;0.28;;;;;;;;;;5069903;28;20195;-68
2021/04/08 14:51:07;;;;;;;0.10;0.10;;;;;;;;;;5066550;28;20323;-68